Airfield :
LOGIN :

Register | Disclaimer

   EN    FR    IT 

 










Legend :    VFR   Marginal VFR   IFR   Intensive IFR   Very Intensive IFR
Visi :
Ceiling :
>= 8 km
>= 3000ft
5 to 8 km
1000 to 3000 ft
1500m to 5 km
500 to 1000 ft
800 to 1500m
200 to 500 ft
< 800m
< 200 ft
Symbols :   Thunderstorms  Fog  Heavy snow  Heavy precipitations  Wind > 20 kt
SIGMETs :     Misc.  Thunderstorms  Icing  Turbulence  Mountain Waves  Volcanic Ashes






- Airport Elevation : 63 ft
- IATA code : BZM


EHWO - Woensdrecht Airbase

CURRENT METAR :
  • 212055Z AUTO 12004KT 080V140 6000 BR OVC300 02/01 Q1004 WHT

EXPIRED METARs :
  • 212038Z AUTO 11004KT 080V140 5000 BR OVC300 02/01 Q1004 WHT
  • 212025Z AUTO 11004KT 4500 BR OVC300 02/01 Q1004 GRN
  • 211955Z AUTO 10004KT 4400 BR OVC250 02/01 Q1004 GRN
  • 211925Z AUTO 10004KT 4300 BR OVC220 02/01 Q1004 GRN
  • 211855Z AUTO 10004KT 070V130 4300 BR OVC290 02/01 Q1004 GRN
  • 211825Z AUTO 10005KT 4300 BR BKN210 OVC290 02/01 Q1004 GRN

TAF TAF EHWO
Valid from the 21 at 10:00 until the 21 at 22:00 UTC


210943Z 2110/2122 10007KT 3500 BR SCT005 BKN006
BECMG 2110/2111 5000 NSW SCT006 BKN010
BECMG 2110/2113 SCT012
BECMG 2112/2115 FEW015
BECMG 2119/2121 14008KT



MET'MAP, your aeronautical weather chart ! - Copyright ORBIFLY December 2007 - Disclaimer

ORBIFLY MET'MAP TEAM :

Programming & Development : Alexandra Zaïnal
Concept & Development : Baudouin d'Aumeries
Co-Development & Prog : Marc-Olivier Méhu
Technical & hardware support : Manuel Goepfert

Contact : metmap@orbifly.com




SOURCES & CREDITS :

   NOAA